Hlavní strana
METAR-TAF:

METAR-TAF

Letiště :

Salt Lake City International Airport

Salt Lake City, Utah, Spojené státy americké

zeměpisná šířka: 40-46-41N, zeměpisná délka: 111-58-10W, výška: 1288 m

Aktuální stav počasí

Zpráva byla vytvořena před 49 minutami, v 09:54 UTC
Jihojihovýchodní vítr 6 kt
Teplota 9°C
Vlhkost vzduchu 49%
Tlak 1024 hPa
Viditelnost: 16.1 km
Jasno

METAR: KSLC 260954Z 16006KT 10SM CLR 09/M01 A3024 RMK AO2 SLP209 T00941006

Čas: 04:43 (10:43 UTC)

Předpověď počasí

Zpráva byla vytvořena před 1 hodinou a 32 minutami, v 09:11 UTC
Předpověď platná od 26 v 09 UTC do 27 v 12 UTC
Jihojihovýchodní vítr 5 kt
Viditelnost: 10 km
Jasno
Od 26 v 1700 UTC
Severozápadní vítr 6 kt
Viditelnost: 10 km
Skoro jasno ve výšce 20000 ft
Od 27 v 0300 UTC
Jihojihovýchodní vítr 5 kt
Viditelnost: 10 km
Jasno

TAF: KSLC 260911Z 2609/2712 15005KT P6SM SKC FM261700 31006KT P6SM FEW200 FM270300 16005KT P6SM SKC

Stav a předpovědi počasí z více než 4 000 letišť (zprávy METAR a TAF).

Červené a žluté tečky na mapě představují dostupné meteorologické stanice.

Když kurzor umístíte na tečku, zobrazí se název stanice.

Pak kliknutím zobrazíte stav a předpověď počasí.

Chcete-li změnit mapu, kliknutím na zelené tlačítko se znaménkem +mapu přiblížíte, kliknutím na zelené tlačítko se znaménkem – mapu oddálíte a kliknutím na zelené šipky přejdete na sousední mapy.


METAR-TAF: